sensor_id;sensor_type;location;lat;lon;timestamp;P1;durP1;ratioP1;P2;durP2;ratioP2
40314;SDS011;26021;45.640;11.302;2022-12-10T10:46:53;15.55;;;13.40;;
40314;SDS011;26021;45.640;11.302;2022-12-10T10:54:50;8.88;;;8.07;;
40314;SDS011;26021;45.640;11.302;2022-12-10T10:59:48;19.75;;;17.75;;
40314;SDS011;26021;45.640;11.302;2022-12-10T11:02:20;59.38;;;40.67;;
40314;SDS011;26021;45.640;11.302;2022-12-10T11:04:51;23.80;;;18.80;;
40314;SDS011;26021;45.640;11.302;2022-12-10T11:10:14;11.00;;;9.90;;
40314;SDS011;26021;45.640;11.302;2022-12-10T11:12:44;10.10;;;9.10;;
40314;SDS011;26021;45.640;11.302;2022-12-10T11:17:48;9.77;;;8.80;;
40314;SDS011;26021;45.640;11.302;2022-12-10T11:20:20;11.25;;;10.05;;
40314;SDS011;26021;45.640;11.302;2022-12-10T11:22:49;13.77;;;12.38;;
40314;SDS011;26021;45.640;11.302;2022-12-10T11:25:19;12.50;;;11.30;;
40314;SDS011;26021;45.640;11.302;2022-12-10T11:31:42;11.82;;;10.63;;
40314;SDS011;26021;45.640;11.302;2022-12-10T11:39:22;12.52;;;10.55;;
40314;SDS011;26021;45.640;11.302;2022-12-10T11:42:11;20.25;;;17.10;;
40314;SDS011;26021;45.640;11.302;2022-12-10T11:55:51;8.93;;;8.02;;
40314;SDS011;26021;45.640;11.302;2022-12-10T12:20:57;10.23;;;9.18;;
40314;SDS011;26021;45.640;11.302;2022-12-10T12:31:29;10.05;;;9.00;;
40314;SDS011;26021;45.640;11.302;2022-12-10T12:34:45;10.07;;;9.07;;
40314;SDS011;26021;45.640;11.302;2022-12-10T12:37:03;10.98;;;9.95;;
40314;SDS011;26021;45.640;11.302;2022-12-10T12:39:32;11.18;;;9.98;;
40314;SDS011;26021;45.640;11.302;2022-12-10T12:49:52;17.40;;;15.52;;
40314;SDS011;26021;45.640;11.302;2022-12-10T12:55:20;15.63;;;14.02;;
40314;SDS011;26021;45.640;11.302;2022-12-10T13:00:48;15.55;;;13.95;;
40314;SDS011;26021;45.640;11.302;2022-12-10T13:03:40;18.20;;;16.25;;
40314;SDS011;26021;45.640;11.302;2022-12-10T13:06:14;20.48;;;18.40;;
40314;SDS011;26021;45.640;11.302;2022-12-10T13:08:49;22.08;;;19.20;;
40314;SDS011;26021;45.640;11.302;2022-12-10T13:11:30;20.58;;;18.50;;
40314;SDS011;26021;45.640;11.302;2022-12-10T13:27:05;26.75;;;23.95;;
40314;SDS011;26021;45.640;11.302;2022-12-10T13:46:34;27.13;;;24.23;;
40314;SDS011;26021;45.640;11.302;2022-12-10T13:49:25;28.33;;;24.50;;
40314;SDS011;26021;45.640;11.302;2022-12-10T14:07:59;31.60;;;26.80;;
40314;SDS011;26021;45.640;11.302;2022-12-10T14:10:30;29.98;;;26.75;;
40314;SDS011;26021;45.640;11.302;2022-12-10T14:12:57;28.20;;;24.65;;
40314;SDS011;26021;45.640;11.302;2022-12-10T14:15:25;34.33;;;30.80;;
40314;SDS011;26021;45.640;11.302;2022-12-10T14:18:13;39.50;;;33.03;;
40314;SDS011;26021;45.640;11.302;2022-12-10T14:20:46;40.28;;;35.35;;
40314;SDS011;26021;45.640;11.302;2022-12-10T14:23:27;36.83;;;31.38;;
40314;SDS011;26021;45.640;11.302;2022-12-10T14:25:58;35.35;;;30.40;;
40314;SDS011;26021;45.640;11.302;2022-12-10T14:28:29;34.38;;;30.85;;
40314;SDS011;26021;45.640;11.302;2022-12-10T14:30:55;33.40;;;29.85;;
40314;SDS011;26021;45.640;11.302;2022-12-10T14:33:21;38.08;;;32.63;;
40314;SDS011;26021;45.640;11.302;2022-12-10T14:35:49;45.83;;;37.08;;
40314;SDS011;26021;45.640;11.302;2022-12-10T14:40:46;39.60;;;35.05;;
40314;SDS011;26021;45.640;11.302;2022-12-10T14:43:19;50.78;;;43.92;;
40314;SDS011;26021;45.640;11.302;2022-12-10T14:45:51;43.72;;;39.10;;
40314;SDS011;26021;45.640;11.302;2022-12-10T14:48:21;45.63;;;40.38;;
40314;SDS011;26021;45.640;11.302;2022-12-10T14:50:47;40.05;;;35.83;;
40314;SDS011;26021;45.640;11.302;2022-12-10T14:53:17;46.85;;;41.38;;
40314;SDS011;26021;45.640;11.302;2022-12-10T14:55:45;46.72;;;41.78;;
40314;SDS011;26021;45.640;11.302;2022-12-10T14:58:16;51.78;;;43.67;;
40314;SDS011;26021;45.640;11.302;2022-12-10T15:00:45;45.92;;;39.97;;
40314;SDS011;26021;45.640;11.302;2022-12-10T15:03:12;37.88;;;33.88;;
40314;SDS011;26021;45.640;11.302;2022-12-10T15:05:57;37.60;;;33.60;;
40314;SDS011;26021;45.640;11.302;2022-12-10T15:08:25;37.40;;;33.15;;
40314;SDS011;26021;45.640;11.302;2022-12-10T15:10:52;36.92;;;32.85;;
40314;SDS011;26021;45.640;11.302;2022-12-10T15:13:27;37.30;;;33.30;;
40314;SDS011;26021;45.640;11.302;2022-12-10T15:15:57;37.88;;;32.85;;
40314;SDS011;26021;45.640;11.302;2022-12-10T15:21:11;37.92;;;33.80;;
40314;SDS011;26021;45.640;11.302;2022-12-10T15:23:39;40.53;;;35.25;;
40314;SDS011;26021;45.640;11.302;2022-12-10T15:26:14;55.42;;;47.28;;
40314;SDS011;26021;45.640;11.302;2022-12-10T15:28:43;40.58;;;35.15;;
40314;SDS011;26021;45.640;11.302;2022-12-10T15:36:21;38.25;;;33.50;;
40314;SDS011;26021;45.640;11.302;2022-12-10T15:38:54;59.53;;;43.20;;
40314;SDS011;26021;45.640;11.302;2022-12-10T15:41:24;68.22;;;45.83;;
40314;SDS011;26021;45.640;11.302;2022-12-10T15:44:03;80.47;;;48.88;;
40314;SDS011;26021;45.640;11.302;2022-12-10T15:46:30;76.70;;;48.20;;
40314;SDS011;26021;45.640;11.302;2022-12-10T15:48:56;82.00;;;49.20;;
40314;SDS011;26021;45.640;11.302;2022-12-10T15:51:21;80.20;;;48.70;;
40314;SDS011;26021;45.640;11.302;2022-12-10T15:53:46;90.80;;;51.53;;
40314;SDS011;26021;45.640;11.302;2022-12-10T15:56:12;85.13;;;51.22;;
40314;SDS011;26021;45.640;11.302;2022-12-10T15:58:38;90.25;;;52.05;;
40314;SDS011;26021;45.640;11.302;2022-12-10T16:01:05;92.90;;;53.47;;
40314;SDS011;26021;45.640;11.302;2022-12-10T16:03:32;92.00;;;53.53;;
40314;SDS011;26021;45.640;11.302;2022-12-10T16:05:57;98.93;;;55.13;;
40314;SDS011;26021;45.640;11.302;2022-12-10T16:08:26;111.10;;;57.92;;
40314;SDS011;26021;45.640;11.302;2022-12-10T16:10:54;100.00;;;56.30;;
40314;SDS011;26021;45.640;11.302;2022-12-10T16:15:51;145.30;;;61.05;;
40314;SDS011;26021;45.640;11.302;2022-12-10T16:18:21;139.82;;;60.88;;
40314;SDS011;26021;45.640;11.302;2022-12-10T16:20:46;129.95;;;62.67;;
40314;SDS011;26021;45.640;11.302;2022-12-10T16:23:12;149.43;;;63.15;;
40314;SDS011;26021;45.640;11.302;2022-12-10T16:25:39;154.30;;;61.78;;
40314;SDS011;26021;45.640;11.302;2022-12-10T16:28:15;128.98;;;62.78;;
40314;SDS011;26021;45.640;11.302;2022-12-10T16:33:14;136.88;;;65.50;;
40314;SDS011;26021;45.640;11.302;2022-12-10T16:35:40;134.05;;;63.40;;
40314;SDS011;26021;45.640;11.302;2022-12-10T16:38:07;143.18;;;61.85;;
40314;SDS011;26021;45.640;11.302;2022-12-10T16:40:34;146.82;;;60.78;;
40314;SDS011;26021;45.640;11.302;2022-12-10T16:42:59;134.43;;;60.03;;
40314;SDS011;26021;45.640;11.302;2022-12-10T16:45:29;141.00;;;58.60;;
40314;SDS011;26021;45.640;11.302;2022-12-10T16:50:25;179.50;;;59.90;;
40314;SDS011;26021;45.640;11.302;2022-12-10T16:52:51;108.75;;;55.45;;
40314;SDS011;26021;45.640;11.302;2022-12-10T16:55:19;171.75;;;61.63;;
40314;SDS011;26021;45.640;11.302;2022-12-10T16:57:46;188.93;;;75.05;;
40314;SDS011;26021;45.640;11.302;2022-12-10T17:00:13;158.27;;;60.80;;
40314;SDS011;26021;45.640;11.302;2022-12-10T17:02:42;122.28;;;62.72;;
40314;SDS011;26021;45.640;11.302;2022-12-10T17:05:13;138.27;;;61.72;;
40314;SDS011;26021;45.640;11.302;2022-12-10T17:07:39;119.97;;;60.83;;
40314;SDS011;26021;45.640;11.302;2022-12-10T17:10:05;110.53;;;59.10;;
40314;SDS011;26021;45.640;11.302;2022-12-10T17:12:31;120.60;;;59.75;;
40314;SDS011;26021;45.640;11.302;2022-12-10T17:14:56;108.15;;;55.15;;
40314;SDS011;26021;45.640;11.302;2022-12-10T17:17:23;107.68;;;58.33;;
40314;SDS011;26021;45.640;11.302;2022-12-10T17:19:49;119.32;;;59.35;;
40314;SDS011;26021;45.640;11.302;2022-12-10T17:22:14;140.80;;;64.60;;
40314;SDS011;26021;45.640;11.302;2022-12-10T17:24:40;121.25;;;62.17;;
40314;SDS011;26021;45.640;11.302;2022-12-10T17:27:18;163.15;;;70.97;;
40314;SDS011;26021;45.640;11.302;2022-12-10T17:29:45;151.05;;;72.13;;
40314;SDS011;26021;45.640;11.302;2022-12-10T17:32:18;163.85;;;68.85;;
40314;SDS011;26021;45.640;11.302;2022-12-10T17:34:46;139.45;;;70.32;;
40314;SDS011;26021;45.640;11.302;2022-12-10T17:37:14;159.10;;;74.35;;
40314;SDS011;26021;45.640;11.302;2022-12-10T17:39:43;139.07;;;68.65;;
40314;SDS011;26021;45.640;11.302;2022-12-10T17:42:09;128.18;;;68.07;;
40314;SDS011;26021;45.640;11.302;2022-12-10T17:44:35;136.57;;;68.75;;
40314;SDS011;26021;45.640;11.302;2022-12-10T17:47:01;142.10;;;76.60;;
40314;SDS011;26021;45.640;11.302;2022-12-10T17:49:27;181.20;;;84.63;;
40314;SDS011;26021;45.640;11.302;2022-12-10T17:51:53;151.48;;;77.78;;
40314;SDS011;26021;45.640;11.302;2022-12-10T17:54:23;139.30;;;75.90;;
40314;SDS011;26021;45.640;11.302;2022-12-10T17:56:49;144.40;;;82.72;;
40314;SDS011;26021;45.640;11.302;2022-12-10T17:59:15;155.57;;;77.47;;
40314;SDS011;26021;45.640;11.302;2022-12-10T18:01:40;139.48;;;74.90;;
40314;SDS011;26021;45.640;11.302;2022-12-10T18:04:06;116.68;;;68.72;;
40314;SDS011;26021;45.640;11.302;2022-12-10T18:06:31;124.38;;;70.40;;
40314;SDS011;26021;45.640;11.302;2022-12-10T18:08:58;123.07;;;69.63;;
40314;SDS011;26021;45.640;11.302;2022-12-10T18:11:26;114.18;;;69.47;;
40314;SDS011;26021;45.640;11.302;2022-12-10T18:13:54;124.47;;;73.15;;
40314;SDS011;26021;45.640;11.302;2022-12-10T18:16:21;112.88;;;67.25;;
40314;SDS011;26021;45.640;11.302;2022-12-10T18:21:19;119.78;;;70.07;;
40314;SDS011;26021;45.640;11.302;2022-12-10T18:23:45;112.15;;;66.93;;
40314;SDS011;26021;45.640;11.302;2022-12-10T18:26:15;122.25;;;75.38;;
40314;SDS011;26021;45.640;11.302;2022-12-10T18:28:45;125.15;;;77.80;;
40314;SDS011;26021;45.640;11.302;2022-12-10T18:31:16;204.73;;;129.70;;
40314;SDS011;26021;45.640;11.302;2022-12-10T18:33:45;129.05;;;81.38;;
40314;SDS011;26021;45.640;11.302;2022-12-10T18:36:22;124.18;;;79.10;;
40314;SDS011;26021;45.640;11.302;2022-12-10T18:38:50;115.72;;;74.70;;
40314;SDS011;26021;45.640;11.302;2022-12-10T18:41:16;126.88;;;79.43;;
40314;SDS011;26021;45.640;11.302;2022-12-10T18:43:42;148.23;;;93.97;;
40314;SDS011;26021;45.640;11.302;2022-12-10T18:46:12;117.20;;;73.53;;
40314;SDS011;26021;45.640;11.302;2022-12-10T18:48:39;106.28;;;68.10;;
40314;SDS011;26021;45.640;11.302;2022-12-10T18:51:05;112.40;;;72.45;;
40314;SDS011;26021;45.640;11.302;2022-12-10T18:53:30;101.78;;;66.13;;
40314;SDS011;26021;45.640;11.302;2022-12-10T18:55:55;107.47;;;69.45;;
40314;SDS011;26021;45.640;11.302;2022-12-10T18:58:21;99.95;;;64.20;;
40314;SDS011;26021;45.640;11.302;2022-12-10T19:00:46;117.57;;;81.72;;
40314;SDS011;26021;45.640;11.302;2022-12-10T19:03:12;122.32;;;79.88;;
40314;SDS011;26021;45.640;11.302;2022-12-10T19:05:37;107.13;;;70.82;;
40314;SDS011;26021;45.640;11.302;2022-12-10T19:08:03;103.15;;;70.82;;
40314;SDS011;26021;45.640;11.302;2022-12-10T19:10:30;102.82;;;70.15;;
40314;SDS011;26021;45.640;11.302;2022-12-10T19:12:55;89.82;;;60.80;;
40314;SDS011;26021;45.640;11.302;2022-12-10T19:15:21;101.50;;;64.68;;
40314;SDS011;26021;45.640;11.302;2022-12-10T19:17:47;105.35;;;67.55;;
40314;SDS011;26021;45.640;11.302;2022-12-10T19:20:15;102.78;;;64.88;;
40314;SDS011;26021;45.640;11.302;2022-12-10T19:22:42;95.68;;;64.28;;
40314;SDS011;26021;45.640;11.302;2022-12-10T19:25:08;92.53;;;65.47;;
40314;SDS011;26021;45.640;11.302;2022-12-10T19:27:33;86.47;;;64.35;;
40314;SDS011;26021;45.640;11.302;2022-12-10T19:29:59;96.45;;;66.68;;
40314;SDS011;26021;45.640;11.302;2022-12-10T19:32:24;129.10;;;87.88;;
40314;SDS011;26021;45.640;11.302;2022-12-10T19:34:50;109.97;;;77.55;;
40314;SDS011;26021;45.640;11.302;2022-12-10T19:37:15;90.35;;;64.97;;
40314;SDS011;26021;45.640;11.302;2022-12-10T19:39:41;94.03;;;64.57;;
40314;SDS011;26021;45.640;11.302;2022-12-10T19:42:06;90.95;;;65.40;;
40314;SDS011;26021;45.640;11.302;2022-12-10T19:44:32;96.25;;;70.60;;
40314;SDS011;26021;45.640;11.302;2022-12-10T19:46:57;76.70;;;58.20;;
40314;SDS011;26021;45.640;11.302;2022-12-10T19:49:23;76.15;;;58.95;;
40314;SDS011;26021;45.640;11.302;2022-12-10T19:51:48;79.88;;;60.05;;
40314;SDS011;26021;45.640;11.302;2022-12-10T19:54:14;90.00;;;65.00;;
40314;SDS011;26021;45.640;11.302;2022-12-10T19:56:40;85.18;;;62.13;;
40314;SDS011;26021;45.640;11.302;2022-12-10T19:59:10;99.97;;;75.88;;
40314;SDS011;26021;45.640;11.302;2022-12-10T20:01:38;78.10;;;57.17;;
40314;SDS011;26021;45.640;11.302;2022-12-10T20:04:03;78.10;;;58.17;;
40314;SDS011;26021;45.640;11.302;2022-12-10T20:06:30;80.20;;;58.70;;
40314;SDS011;26021;45.640;11.302;2022-12-10T20:09:02;77.65;;;58.30;;
40314;SDS011;26021;45.640;11.302;2022-12-10T20:11:30;78.70;;;59.20;;
40314;SDS011;26021;45.640;11.302;2022-12-10T20:13:56;82.82;;;58.55;;
40314;SDS011;26021;45.640;11.302;2022-12-10T20:16:23;80.97;;;59.92;;
40314;SDS011;26021;45.640;11.302;2022-12-10T20:18:51;77.85;;;58.38;;
40314;SDS011;26021;45.640;11.302;2022-12-10T20:21:17;77.60;;;58.53;;
40314;SDS011;26021;45.640;11.302;2022-12-10T20:23:46;68.50;;;53.53;;
40314;SDS011;26021;45.640;11.302;2022-12-10T20:26:16;60.83;;;47.60;;
40314;SDS011;26021;45.640;11.302;2022-12-10T20:28:48;59.38;;;46.75;;
40314;SDS011;26021;45.640;11.302;2022-12-10T20:31:14;64.72;;;47.22;;
40314;SDS011;26021;45.640;11.302;2022-12-10T20:33:40;61.33;;;47.47;;
40314;SDS011;26021;45.640;11.302;2022-12-10T20:36:13;60.00;;;45.75;;
40314;SDS011;26021;45.640;11.302;2022-12-10T20:38:42;58.00;;;45.30;;
40314;SDS011;26021;45.640;11.302;2022-12-10T20:41:10;55.70;;;44.33;;
40314;SDS011;26021;45.640;11.302;2022-12-10T20:43:36;63.13;;;49.50;;
40314;SDS011;26021;45.640;11.302;2022-12-10T20:46:02;52.80;;;42.75;;
40314;SDS011;26021;45.640;11.302;2022-12-10T20:48:32;47.72;;;37.78;;
40314;SDS011;26021;45.640;11.302;2022-12-10T20:50:58;47.85;;;36.17;;
40314;SDS011;26021;45.640;11.302;2022-12-10T20:53:23;47.53;;;38.83;;
40314;SDS011;26021;45.640;11.302;2022-12-10T20:55:49;51.30;;;39.78;;
40314;SDS011;26021;45.640;11.302;2022-12-10T20:58:14;49.83;;;39.30;;
40314;SDS011;26021;45.640;11.302;2022-12-10T21:00:40;53.65;;;41.38;;
40314;SDS011;26021;45.640;11.302;2022-12-10T21:03:05;46.60;;;39.10;;
40314;SDS011;26021;45.640;11.302;2022-12-10T21:05:30;52.10;;;39.15;;
40314;SDS011;26021;45.640;11.302;2022-12-10T21:07:56;49.45;;;41.78;;
40314;SDS011;26021;45.640;11.302;2022-12-10T21:10:21;47.20;;;38.95;;
40314;SDS011;26021;45.640;11.302;2022-12-10T21:13:05;50.78;;;40.10;;
40314;SDS011;26021;45.640;11.302;2022-12-10T21:15:32;52.42;;;41.70;;
40314;SDS011;26021;45.640;11.302;2022-12-10T21:17:58;50.88;;;40.10;;
40314;SDS011;26021;45.640;11.302;2022-12-10T21:20:24;48.75;;;36.83;;
40314;SDS011;26021;45.640;11.302;2022-12-10T21:22:49;48.15;;;36.58;;
40314;SDS011;26021;45.640;11.302;2022-12-10T21:25:15;38.80;;;31.58;;
40314;SDS011;26021;45.640;11.302;2022-12-10T21:27:40;36.08;;;29.33;;
40314;SDS011;26021;45.640;11.302;2022-12-10T21:30:06;39.00;;;29.98;;
40314;SDS011;26021;45.640;11.302;2022-12-10T21:32:32;28.17;;;22.10;;
40314;SDS011;26021;45.640;11.302;2022-12-10T21:34:58;28.50;;;22.15;;
40314;SDS011;26021;45.640;11.302;2022-12-10T21:37:23;26.90;;;20.95;;
40314;SDS011;26021;45.640;11.302;2022-12-10T21:39:49;22.85;;;19.88;;
40314;SDS011;26021;45.640;11.302;2022-12-10T21:42:14;20.95;;;17.10;;
40314;SDS011;26021;45.640;11.302;2022-12-10T21:44:58;16.80;;;14.20;;
40314;SDS011;26021;45.640;11.302;2022-12-10T21:47:24;18.88;;;15.68;;
40314;SDS011;26021;45.640;11.302;2022-12-10T21:49:49;13.55;;;12.15;;
40314;SDS011;26021;45.640;11.302;2022-12-10T21:52:15;13.10;;;11.10;;
40314;SDS011;26021;45.640;11.302;2022-12-10T21:54:41;9.23;;;8.32;;
40314;SDS011;26021;45.640;11.302;2022-12-10T21:57:06;13.35;;;11.95;;
40314;SDS011;26021;45.640;11.302;2022-12-10T21:59:32;7.72;;;6.93;;
40314;SDS011;26021;45.640;11.302;2022-12-10T22:01:57;6.05;;;5.45;;
40314;SDS011;26021;45.640;11.302;2022-12-10T22:04:23;7.55;;;6.57;;
40314;SDS011;26021;45.640;11.302;2022-12-10T22:06:52;11.27;;;10.13;;
40314;SDS011;26021;45.640;11.302;2022-12-10T22:09:18;13.18;;;11.88;;
40314;SDS011;26021;45.640;11.302;2022-12-10T22:11:43;12.23;;;10.90;;
40314;SDS011;26021;45.640;11.302;2022-12-10T22:14:08;16.63;;;13.63;;
40314;SDS011;26021;45.640;11.302;2022-12-10T22:16:34;14.95;;;12.77;;
40314;SDS011;26021;45.640;11.302;2022-12-10T22:18:59;13.40;;;11.98;;
40314;SDS011;26021;45.640;11.302;2022-12-10T22:21:25;11.27;;;10.02;;
40314;SDS011;26021;45.640;11.302;2022-12-10T22:23:50;11.52;;;10.43;;
40314;SDS011;26021;45.640;11.302;2022-12-10T22:26:17;15.88;;;13.13;;
40314;SDS011;26021;45.640;11.302;2022-12-10T22:28:42;13.13;;;11.75;;
40314;SDS011;26021;45.640;11.302;2022-12-10T22:31:08;11.65;;;10.45;;
40314;SDS011;26021;45.640;11.302;2022-12-10T22:33:34;11.80;;;10.60;;
40314;SDS011;26021;45.640;11.302;2022-12-10T22:36:00;12.45;;;11.13;;
40314;SDS011;26021;45.640;11.302;2022-12-10T22:38:26;13.88;;;12.38;;
40314;SDS011;26021;45.640;11.302;2022-12-10T22:40:52;13.98;;;12.07;;
40314;SDS011;26021;45.640;11.302;2022-12-10T22:43:18;13.27;;;11.77;;
40314;SDS011;26021;45.640;11.302;2022-12-10T22:45:44;14.27;;;12.82;;
40314;SDS011;26021;45.640;11.302;2022-12-10T22:48:09;17.13;;;14.32;;
40314;SDS011;26021;45.640;11.302;2022-12-10T22:50:35;21.40;;;15.73;;
40314;SDS011;26021;45.640;11.302;2022-12-10T22:53:01;18.75;;;15.52;;
40314;SDS011;26021;45.640;11.302;2022-12-10T22:55:26;23.00;;;16.45;;
40314;SDS011;26021;45.640;11.302;2022-12-10T22:57:52;18.95;;;15.55;;
40314;SDS011;26021;45.640;11.302;2022-12-10T23:00:18;20.15;;;15.65;;
40314;SDS011;26021;45.640;11.302;2022-12-10T23:02:45;24.15;;;17.20;;
40314;SDS011;26021;45.640;11.302;2022-12-10T23:05:11;23.38;;;16.90;;
40314;SDS011;26021;45.640;11.302;2022-12-10T23:07:36;23.40;;;17.10;;
40314;SDS011;26021;45.640;11.302;2022-12-10T23:10:03;24.73;;;18.50;;
40314;SDS011;26021;45.640;11.302;2022-12-10T23:12:29;23.20;;;17.17;;
40314;SDS011;26021;45.640;11.302;2022-12-10T23:15:13;20.27;;;16.23;;
40314;SDS011;26021;45.640;11.302;2022-12-10T23:17:38;23.85;;;17.00;;
40314;SDS011;26021;45.640;11.302;2022-12-10T23:20:04;24.10;;;17.95;;
40314;SDS011;26021;45.640;11.302;2022-12-10T23:22:31;24.88;;;17.60;;
40314;SDS011;26021;45.640;11.302;2022-12-10T23:24:58;22.40;;;15.80;;
40314;SDS011;26021;45.640;11.302;2022-12-10T23:27:23;25.60;;;17.48;;
40314;SDS011;26021;45.640;11.302;2022-12-10T23:29:49;23.67;;;16.08;;
40314;SDS011;26021;45.640;11.302;2022-12-10T23:32:14;55.30;;;36.13;;
40314;SDS011;26021;45.640;11.302;2022-12-10T23:34:40;34.58;;;25.65;;
40314;SDS011;26021;45.640;11.302;2022-12-10T23:37:06;25.95;;;19.58;;
40314;SDS011;26021;45.640;11.302;2022-12-10T23:39:32;25.13;;;18.95;;
40314;SDS011;26021;45.640;11.302;2022-12-10T23:41:57;22.98;;;18.00;;
40314;SDS011;26021;45.640;11.302;2022-12-10T23:44:23;22.52;;;17.13;;
40314;SDS011;26021;45.640;11.302;2022-12-10T23:46:48;22.30;;;17.65;;
40314;SDS011;26021;45.640;11.302;2022-12-10T23:49:14;23.63;;;18.52;;
40314;SDS011;26021;45.640;11.302;2022-12-10T23:51:40;19.65;;;17.55;;
40314;SDS011;26021;45.640;11.302;2022-12-10T23:54:05;23.23;;;19.20;;
40314;SDS011;26021;45.640;11.302;2022-12-10T23:56:31;23.45;;;18.08;;
40314;SDS011;26021;45.640;11.302;2022-12-10T23:58:56;22.15;;;17.88;;
